Flugplatz Walldorf (EDGX)

Hier findest Du alle Informationen zum Flugplatz Walldorf (EDGX).

Informationen für Piloten zum Flugplatz Walldorf

Hier findest Du alle relevanten Informationen, die Du als Pilot benötigst, um Walldorf anzufliegen.

Flugplatz: Walldorf ICAO-Code: EDGX
Frequenz Turm: 118,275 Mhz GAFOR Gebiet: 45
Frequenz Ground: 118,275 Mhz Mogas: nein
Platzrunde: W 1200 ft Landegebühr: -
Platzhöhe: - Sunrise: 03:25 Uhr UTC
Pisten: 18/36 - 425 m x 30 m, GRAS Sunset: 19:19 Uhr UTC

Mitglieder, die in Walldorf fliegen

Flugwetter am Flugplatz Walldorf

Die METAR Information stammen aus EDFM (21.35 km entfernt).

METAR Code:
2022/05/24 11:50
EDFM 241150Z 27011KT 220V300 CAVOK 20/09 Q1009

Temperatur: 15,4 °C Niederschlag: - Wind: 4,3 kt (max.: 7,3 kt in Böen)
Temperatur (min.): 15,0 °C Luftdruck: 1017 hPa Windrichtung: 297 °
Temperatur (max.): 16,6 °C Luftfeuchtigkeit: 48 % Bewölkung: 4/8

Flugschulen am Flugplatz Walldorf

Am Flugplatz Walldorf gibt es leider keine Flugschule.

Benachbarte Flugplätze und Flugschulen

Es gibt 19 weitere Flugplätze in einem Umkreis von 50 km um den Flugplatz Walldorf.

Jetzt anmelden

Passwort vergessen

Umfrage Archiv

Sendet Ihr ADS-B und/oder FLARM?

Ja
81.9 %
Nein
18.1 %
Stimmen: 149 | Diskussion
Anzeige: Roland Aircraft
Statistik Alle Mitglieder

Aktuell sind 57 Besucher online, davon 4 Mitglieder und 53 Gäste.


Mitglieder online:
Chris_EDNC  Mr. Lucky  GonzoFlieger  dmkoe 

Anzeige: ULPower Aero Engines Anzeige: Pocket FMS